LiveATC.Net - Listen to live air traffic control over the Internet!


ICAO: KSDM  IATA: SDM   Airport: Brown Field Municipal Airport
City: San Diego   State/Province: California
Country: United States   Continent: North America
KSDM METAR Weather: KSDM 190953Z AUTO 07004KT 8SM CLR 14/11 A2990 RMK AO2 SLP120 T01390111
KSDM Flight Activity (FlightAware)
KSDM Airport Info   (iFlightPlanner)
KSDM VFR Sectional Chart   (iFlightPlanner) 
KSDM IFR Low Chart   (iFlightPlanner) 

KSDM Ground/Tower
Feed Status: UP   Listeners: 0
Listen in your browser - HTML5 player (in browser, HTML5)
Click here to listen with your own player (launches your MP3 player)
KSDM Ground/Tower Audio Archives
FacilityFrequency
Brown Ground124.400
Brown Tower128.250
Brown Tower225.400

NOTICE

Unauthorized use prohibited. See LiveATC.net Terms of Service


Airport/ARTCC Code
Frequency Search
(e.g., 124.400, 128.75)
Site-wide search
 


Browse LiveATC Feeds
Top 50 LiveATC Feeds
LiveATC Feed Map
Bad Weather Areas

LiveATC FAQ
Offer LiveATC feed
Contact LiveATC.net
Press Inquiries

LiveATC on iPhone
LiveATC on Android

Windows Phone
Windows 8/10

LiveATC Mobile
(Mobile browser)

ATC Audio Archives
Interesting Recordings

LiveATC Forums


Home Page
About LiveATC.net
Make a Donation
Terms of Use
Privacy Policy

Canadian Air Freqs

AIRMETs/SIGMETs

FAA Airport Status
Nat'l Airspace Status
Arrival Demand Charts


Server Software By:
Icecast.org
Liquidsoap